Flight Track Log - Related Links

Times and Time Zones

All times are in EDT time to prevent confusion due to time zone crossing. See the N327A flight status page for this flight to view local times or setup timezone preferences in your user account.

Time Position Orientation Groundspeed Altitude Reporting Facility
EDT Latitude Longitude Course Direction KTS MPH feet Rate Location/Type
Sun 09:59:35 PM 29.9594 -95.3414 138° Southeast 160 184 700  Level Houston Center
Sun 10:00:48 PM 29.9153 -95.2961 138° Southeast 173 199 3,300 2,084 Climbing Houston Center
Sun 10:01:10 PM 29.9072 -95.2828 125° Southeast 176 203 4,000 2,182 Climbing Houston Center
Sun 10:01:43 PM 29.8883 -95.2536 127° Southeast 189 217 5,300 2,066 Climbing Houston Center
Sun 10:02:11 PM 29.8756 -95.2339 127° Southeast 187 215 6,100 2,066 Climbing Houston Center
Sun 10:02:44 PM 29.8544 -95.2047 130° Southeast 196 226 7,400 1,935 Climbing Houston Center
Sun 10:03:13 PM 29.8428 -95.1831 122° Southeast 194 223 8,100 1,701 Climbing Houston Center
Sun 10:03:51 PM 29.8314 -95.1378 106° East 202 232 9,300 1,574 Climbing Houston Center
Sun 10:04:14 PM 29.8319 -95.1186 88° East 204 235 9,700 1,574 Climbing Houston Center
Sun 10:04:52 PM 29.8228 -95.0689 102° East 214 246 10,900 1,279 Climbing Houston Center
Sun 10:05:15 PM 29.8222 -95.0503 92° East 213 245 11,000 109 Climbing Houston Center
Sun 10:05:47 PM 29.8142 -94.9978 100° East 280 322 11,000  Level Houston Center
Sun 10:06:16 PM 29.8100 -94.9631 98° East 272 313 11,000 295 Level Houston Center
Sun 10:06:48 PM 29.8008 -94.9031 100° East 295 339 11,300 1,082 Climbing Houston Center
Sun 10:07:17 PM 29.7972 -94.8711 97° East 289 333 12,100 1,667 Climbing Houston Center
Sun 10:08:18 PM 29.7850 -94.7903 100° East 267 307 13,800 1,820 Climbing Houston Center
Sun 10:09:19 PM 29.7756 -94.7178 99° East 239 275 15,800 1,918 Climbing Houston Center
Sun 10:10:20 PM 29.7642 -94.6389 99° East 244 281 17,700 1,918 Climbing Houston Center
Sun 10:11:21 PM 29.7511 -94.5550 100° East 265 305 19,700 1,869 Climbing Houston Center
Sun 10:12:22 PM 29.7394 -94.4739 99° East 259 298 21,500 1,721 Climbing Houston Center
Sun 10:13:23 PM 29.7283 -94.3900 99° East 264 304 23,200 1,721 Climbing Houston Center
Sun 10:14:24 PM 29.7103 -94.2878 101° East 272 313 25,000 1,525 Climbing Houston Center
Sun 10:15:25 PM 29.6928 -94.1992 103° East 283 326 26,300 1,230 Climbing Houston Center
Sun 10:16:26 PM 29.6767 -94.1108 102° East 290 334 27,500 1,131 Climbing Houston Center
Sun 10:17:27 PM 29.6586 -94.0172 102° East 299 344 28,600 1,082 Climbing Houston Center
Sun 10:18:28 PM 29.6403 -93.9197 102° East 310 357 29,700 1,033 Climbing Houston Center
Sun 10:19:29 PM 29.6225 -93.8214 102° East 314 361 30,700 934 Climbing Houston Center
Sun 10:20:30 PM 29.6028 -93.7200 103° East 324 373 31,600 885 Climbing Houston Center
Sun 10:21:31 PM 29.5822 -93.6158 103° East 333 383 32,500 787 Climbing Houston Center
Sun 10:22:32 PM 29.5619 -93.5100 102° East 339 390 33,200 738 Climbing Houston Center
Sun 10:23:33 PM 29.5364 -93.3800 103° East 349 402 34,000 689 Climbing Houston Center
Sun 10:24:34 PM 29.5147 -93.2692 103° East 354 407 34,600 492 Climbing Houston Center
Sun 10:25:35 PM 29.4928 -93.1561 103° East 361 415 35,000 197 Climbing Houston Center
Sun 10:26:36 PM 29.4694 -93.0367 103° East 381 438 35,000  Level Houston Center
Sun 10:27:37 PM 29.4450 -92.9117 103° East 399 459 35,000  Level Houston Center
Sun 10:28:38 PM 29.4194 -92.7822 103° East 415 478 35,000  Level Houston Center
Sun 10:29:39 PM 29.3928 -92.6511 103° East 423 487 35,000  Level Houston Center
Sun 10:30:40 PM 29.3669 -92.5178 103° East 430 495 35,000  Level Houston Center
Sun 10:31:41 PM 29.3400 -92.3831 103° East 433 498 35,000  Level Houston Center
Sun 10:32:42 PM 29.3128 -92.2486 103° East 434 499 35,000  Level Houston Center
Sun 10:33:43 PM 29.2794 -92.0881 103° East 433 498 35,000  Level Houston Center
Sun 10:34:44 PM 29.2511 -91.9517 103° East 440 506 35,000  Level Houston Center
Sun 10:35:45 PM 29.2239 -91.8156 103° East 440 506 35,000  Level Houston Center
Sun 10:36:46 PM 29.1944 -91.6714 103° East 440 506 35,000  Level Houston Center
Sun 10:37:47 PM 29.1647 -91.5353 104° East 442 509 35,000  Level Houston Center
Sun 10:38:48 PM 29.1375 -91.3994 103° East 440 506 35,000  Level Houston Center
Sun 10:39:49 PM 29.1072 -91.2619 104° East 445 512 35,000  Level Houston Center
Sun 10:40:50 PM 29.0797 -91.1267 103° East 440 506 35,000  Level Houston Center
Sun 10:41:51 PM 29.0497 -90.9914 104° East 441 507 35,000  Level Houston Center
Sun 10:42:52 PM 29.0208 -90.8561 104° East 441 507 35,000  Level Houston Center
Sun 10:43:53 PM 28.9919 -90.7211 104° East 440 506 35,000  Level Houston Center
Sun 10:44:54 PM 28.9625 -90.5861 104° East 440 506 35,000  Level Houston Center
Sun 10:45:54 PM 28.9339 -90.4511 104° East 441 507 35,000  Level Houston Center
Sun 10:46:55 PM 28.9033 -90.3161 104° East 440 506 35,000  Level Houston Center
Sun 10:47:56 PM 28.8733 -90.1808 104° East 441 507 35,000  Level Houston Center
Sun 10:48:57 PM 28.8378 -90.0183 104° East 443 510 35,000  Level Houston Center
Sun 10:49:58 PM 28.8078 -89.8847 104° East 440 506 35,000  Level Houston Center
Sun 10:50:59 PM 28.7778 -89.7494 104° East 441 507 35,000  Level Houston Center
Sun 10:52:00 PM 28.7481 -89.6144 104° East 441 507 35,000  Level Houston Center
Sun 10:53:00 PM 28.7167 -89.4783 105° East 446 513 35,000  Level Houston Center
Sun 10:54:01 PM 28.6872 -89.3433 104° East 442 509 35,000  Level Houston Center
Sun 10:55:02 PM 28.6564 -89.2106 105° East 437 503 35,000  Level Houston Center
Sun 10:56:03 PM 28.6261 -89.0767 104° East 438 504 35,000  Level Houston Center
Sun 10:57:04 PM 28.5956 -88.9422 104° East 438 504 35,000  Level Houston Center
Sun 10:58:05 PM 28.5647 -88.8100 105° East 437 503 35,000  Level Houston Center
Sun 10:59:05 PM 28.5333 -88.6761 105° East 438 504 35,000  Level Houston Center
Sun 11:00:06 PM 28.5028 -88.5414 104° East 441 507 35,000  Level Houston Center
Sun 11:01:07 PM 28.4647 -88.3819 105° East 438 504 35,000  Level Houston Center
Sun 11:02:08 PM 28.4336 -88.2469 105° East 442 509 35,000  Level Houston Center
Sun 11:03:09 PM 28.4017 -88.1139 105° East 441 507 35,000  Level Houston Center
Sun 11:04:10 PM 28.3733 -87.9950 105° East 438 504 35,000  Level Houston Center
Sun 11:05:10 PM 28.3342 -87.8642 109° East 438 504 35,000  Level Houston Center
Sun 11:06:11 PM 28.2958 -87.7322 108° East 441 507 35,000  Level Houston Center
Sun 11:07:12 PM 28.2578 -87.6017 108° East 438 504 35,000  Level Houston Center
Sun 11:08:13 PM 28.2194 -87.4700 108° East 440 506 35,000  Level Houston Center
Sun 11:09:14 PM 28.1736 -87.3131 108° East 439 505 35,000  Level Houston Center
Sun 11:10:14 PM 28.1353 -87.1822 108° East 439 505 35,000  Level Houston Center
Sun 11:11:15 PM 28.0994 -87.0542 108° East 436 502 35,000  Level Jacksonville Center
Sun 11:12:15 PM 28.0575 -86.9233 110° East 432 497 35,000  Level Jacksonville Center
Sun 11:13:15 PM 28.0200 -86.7900 108° East 437 503 35,000  Level Jacksonville Center
Sun 11:14:15 PM 27.9819 -86.6664 109° East 431 496 35,000  Level Jacksonville Center
Sun 11:15:15 PM 27.9442 -86.5311 108° East 436 502 35,000  Level Jacksonville Center
Sun 11:16:15 PM 27.9042 -86.3983 109° East 436 502 35,000  Level Jacksonville Center
Sun 11:17:15 PM 27.8656 -86.2725 109° East 436 502 35,000  Level Jacksonville Center
Sun 11:18:15 PM 27.8275 -86.1400 108° East 429 494 35,000  Level Jacksonville Center
Sun 11:19:15 PM 27.7908 -86.0144 108° East 431 496 35,000  Level Jacksonville Center
Sun 11:20:15 PM 27.7522 -85.8819 108° East 431 496 35,000  Level Jacksonville Center
Sun 11:21:10 PM 27.7236 -85.7731 107° East 449 517 35,000  Level Miami Center
Sun 11:22:10 PM 27.6814 -85.6456 110° East 454 522 35,000  Level Miami Center
Sun 11:23:13 PM 27.6478 -85.5167 106° East 442 509 35,000  Level Miami Center
Sun 11:24:12 PM 27.6053 -85.3872 110° East 437 503 35,000  Level Miami Center
Sun 11:25:10 PM 27.5611 -85.2553 111° Southeast 442 509 35,000  Level Miami Center
Sun 11:26:10 PM 27.5311 -85.1269 105° East 436 502 35,000  Level Miami Center
Sun 11:27:10 PM 27.4883 -84.9975 110° East 436 502 35,000 -197 Level Miami Center
Sun 11:28:12 PM 27.4517 -84.8689 108° East 436 502 34,600 -700 Descending Miami Center
Sun 11:29:10 PM 27.4156 -84.7331 107° East 436 502 33,600 -807 Descending Miami Center
Sun 11:30:11 PM 27.3811 -84.5953 106° East 448 516 33,000 -295 Descending Miami Center
Sun 11:31:12 PM 27.3361 -84.4639 111° Southeast 448 516 33,000  Level Miami Center
Sun 11:32:10 PM 27.3033 -84.3358 106° East 448 516 33,000  Level Miami Center
Sun 11:33:10 PM 27.2658 -84.2097 108° East 436 502 33,000  Level Miami Center
Sun 11:34:10 PM 27.2286 -84.0814 108° East 429 494 33,000  Level Miami Center
Sun 11:35:11 PM 27.1911 -83.9531 108° East 429 494 33,000  Level Miami Center
Sun 11:36:11 PM 27.1533 -83.8272 109° East 429 494 33,000  Level Miami Center
Sun 11:37:12 PM 27.1178 -83.7014 108° East 429 494 33,000  Level Miami Center
Sun 11:38:13 PM 27.0819 -83.5758 108° East 429 494 33,000  Level Miami Center
Sun 11:39:10 PM 27.0356 -83.4519 113° Southeast 429 494 33,000 -359 Level Miami Center
Sun 11:40:10 PM 26.9908 -83.3331 113° Southeast 424 488 32,300 -850 Descending Miami Center
Sun 11:41:10 PM 26.9422 -83.2025 113° Southeast 424 488 31,300 -1,000 Descending Miami Center
Sun 11:42:10 PM 26.8956 -83.0764 113° Southeast 435 501 30,300 -1,100 Descending Miami Center
Sun 11:43:10 PM 26.8414 -82.9294 112° Southeast 451 519 29,100 -1,140 Descending Miami Center
Sun 11:44:11 PM 26.8006 -82.8064 110° East 444 511 28,000 -1,041 Descending Miami Center
Sun 11:45:11 PM 26.7533 -82.6856 114° Southeast 432 497 27,000 -950 Descending Miami Center
Sun 11:46:11 PM 26.7100 -82.5672 112° Southeast 421 484 26,100 -958 Descending Miami Center
Sun 11:47:10 PM 26.6644 -82.4489 113° Southeast 408 470 25,100 -1,008 Descending Miami Center
Sun 11:48:10 PM 26.6231 -82.3331 112° Southeast 403 464 24,100 -992 Descending Miami Center
Sun 11:49:11 PM 26.5789 -82.2242 114° Southeast 398 458 23,100 -1,000 Descending Miami Center
Sun 11:50:10 PM 26.5372 -82.1086 112° Southeast 393 452 22,100 -1,041 Descending Miami Center
Sun 11:51:12 PM 26.4953 -82.0022 114° Southeast 388 447 21,000 -1,000 Descending Miami Center
Sun 11:52:10 PM 26.4553 -81.8869 111° Southeast 388 447 20,100 -942 Descending Miami Center
Sun 11:53:13 PM 26.4150 -81.7808 113° Southeast 382 440 19,100 -1,041 Descending Miami Center
Sun 11:54:11 PM 26.3747 -81.6750 113° Southeast 377 434 18,000 -1,311 Descending Miami Center
Sun 11:55:12 PM 26.3364 -81.5739 113° Southeast 371 427 16,500 -1,513 Descending Miami Center
Sun 11:56:10 PM 26.2978 -81.4725 113° Southeast 360 414 15,000 -1,729 Descending Miami Center
Sun 11:57:10 PM 26.2592 -81.3761 114° Southeast 350 403 13,100 -2,250 Descending Miami Center
Sun 11:58:10 PM 26.2264 -81.2822 111° Southeast 336 387 10,500 -2,579 Descending Miami Center
Sun 11:59:11 PM 26.1933 -81.2000 114° Southeast 312 359 7,900 -2,237 Descending Miami Center
Mon 12:00:08 AM 26.1583 -81.1200 116° Southeast 292 336 6,100 -1,075 Descending Miami Center
Mon 12:00:57 AM 26.1350 -81.0569 112° Southeast 286 329 6,000 -94 Descending Miami Center
Mon 12:01:12 AM 26.1294 -81.0358 106° East 291 335 6,000  Level Miami Center
Mon 12:02:08 AM 26.0961 -80.9583 116° Southeast 286 329 6,000 -500 Level Miami Center
Mon 12:03:12 AM 26.1047 -80.8661 84° East 271 312 5,000 -968 Descending Miami Center
Mon 12:04:12 AM 26.1239 -80.7789 76° East 271 312 4,000 -504 Descending Miami Center
Mon 12:05:11 AM 26.1428 -80.6961 76° East 271 312 4,000  Level Miami Center
Mon 12:06:07 AM 26.1572 -80.6225 78° East 282 325 4,000  Level Miami Center
Mon 12:07:07 AM 26.1781 -80.5400 74° East 281 323 4,000  Level Miami Center
Mon 12:08:03 AM 26.1967 -80.4642 75° East 278 320 4,000 -474 Level Miami Center
Mon 12:09:01 AM 26.2175 -80.3792 75° East 280 322 3,100 -942 Descending Miami Center
Mon 12:10:04 AM 26.2383 -80.2986 74° East 268 308 2,100 -508 Descending Miami Center
Mon 12:11:11 AM 26.2486 -80.2156 82° East 232 267 2,000 -47 Descending Miami Center
Mon 12:12:11 AM 26.2542 -80.1533 84° East 186 214 2,000 -242 Level Miami Center
Mon 12:13:15 AM 26.2364 -80.1042 112° Southeast 148 170 1,500 -672 Descending Miami Center
Mon 12:14:16 AM 26.2028 -80.1169 199° South 160 184 600 -621 Descending Miami Center
Mon 12:15:11 AM 26.1978 -80.1539 261° West 114 131 300 -327 Descending Miami Center
Mon 12:17:00 AM 26.1833 -80.1667 193° South  Level FlightAware Approximate

Login

Don't have an account? Register now (free) for customized features, flight alerts, and more!